KANQ/ANQ METAR and TAF weather

Enter ICAO airport designator
Station Type Date Time Source
KANQ METAR 2019/12/14 06:15 UTC NOAA

KANQ 140615Z AUTO 00000KT 4SM BR M01/M02 A2975 RMK AO2


Station Type Date Time Source
KANQ Decoded METAR 2019/12/14 06:15 UTC NOAA

Station name not available
Dec 14, 2019 - 01:15 AM EST / 2019.12.14 0615 UTC
Wind: Calm:0
Visibility: 4 mile(s):0
Weather: mist
Temperature: 30 F (-1 C)
Dew Point: 28 F (-2 C)
Relative Humidity: 92%
Pressure (altimeter): 29.75 in. Hg (1007 hPa)
ob: KANQ 140615Z AUTO 00000KT 4SM BR M01/M02 A2975 RMK AO2
cycle: 6

Station Type Date Time Source
KANQ TAF UTC NOAA

Error!

Example: see airport list